»·PEaware :: JBU102 KSNA-KLAS

JBU102 :: KSNA-KLAS

FLIGHT INFORMATION

Flight Status: Arrived
Operator:
JetBlue Airways
More flights by this operator :: More flights under this callsign
Pilot: Rohan Ogale (9904)
Aircraft: BOEING 737-300
(B733)
More flights by this aircraft type
Origin: KSNA John Wayne-Orange Co
United States
Destination: KLAS McCarran Intl
United States
More flights between these airports :: More routes between these airports
Route: FINZZ1 MISEN KEPEC4
File this flight plan on PilotEdge
Remarks: PBN / A1B3B4B5D3D4 DOF / 170812 REG / N155AW OPR / JBU RMK / TCAS SIMBRIEF
Altitude:
(Current/Filed)
27,000ft
Speed:
(Current/Filed)
444kts
Departed: 12-Aug-17 08:15 AM
Arrived: 12-Aug-17 09:06 AM
Distance/Time
Traveled:
197nm/0:50
Distance/Time
To Go:
Arrived

Flight Plot

Page will automatically refresh every two minutes.

Flight plan parsing failed; only flown route is shown


Map Options




Map Legend


Flown Route
Filed Route
Departure Airport
Arrival Airport
Navaid (VOR, NDB)
Fix

Horizontal Profiles

Position Reports

Time Latitude Longitude Heading Altitude Ground
Speed
12-Aug-17 07:51 33.676496 -117.864158 117 63ft 0kts
12-Aug-17 07:52 33.676496 -117.864158 117 63ft 0kts
12-Aug-17 07:53 33.676496 -117.864157 117 63ft 0kts
12-Aug-17 07:54 33.676496 -117.864157 117 63ft 0kts
12-Aug-17 07:55 33.676496 -117.864157 117 63ft 0kts
12-Aug-17 07:56 33.676496 -117.864157 117 63ft 0kts
12-Aug-17 07:57 33.676496 -117.864157 117 63ft 0kts
12-Aug-17 07:58 33.676496 -117.864157 117 63ft 0kts
12-Aug-17 07:59 33.676496 -117.864157 117 63ft 0kts
12-Aug-17 08:00 33.676496 -117.864157 117 63ft 0kts
12-Aug-17 08:01 33.676496 -117.864157 117 63ft 0kts
12-Aug-17 08:02 33.676496 -117.864157 117 63ft 0kts
12-Aug-17 08:03 33.676496 -117.864157 117 63ft 0kts
12-Aug-17 08:04 33.676496 -117.864157 117 63ft 0kts
12-Aug-17 08:05 33.676496 -117.864157 117 63ft 0kts
12-Aug-17 08:06 33.676496 -117.864157 117 63ft 0kts
12-Aug-17 08:07 33.676496 -117.864157 117 63ft 0kts
12-Aug-17 08:08 33.676496 -117.864157 117 63ft 0kts
12-Aug-17 08:09 33.676496 -117.864157 117 63ft 0kts
12-Aug-17 08:10 33.676496 -117.864158 117 63ft 0kts
12-Aug-17 08:12 33.676743 -117.864733 118 63ft 0kts
12-Aug-17 08:13 33.676747 -117.864742 118 63ft 0kts
12-Aug-17 08:14 33.676747 -117.864742 118 63ft 0kts
12-Aug-17 08:15 33.676744 -117.864735 118 63ft 0kts
12-Aug-17 08:16 33.677824 -117.864124 27 63ft 13kts
12-Aug-17 08:17 33.680445 -117.862772 334 63ft 3kts
12-Aug-17 08:18 33.681418 -117.864711 297 63ft 7kts
12-Aug-17 08:19 33.675177 -117.869146 206 63ft 119kts
12-Aug-17 08:20 33.633600 -117.893253 188 1856ft 207kts
12-Aug-17 08:21 33.575647 -117.901449 196 3970ft 253kts
12-Aug-17 08:22 33.516381 -117.962357 222 4994ft 331kts
12-Aug-17 08:23 33.509113 -118.061097 312 7100ft 315kts
12-Aug-17 08:24 33.562629 -118.109402 330 9190ft 219kts
12-Aug-17 08:25 33.616752 -118.114515 20 11343ft 230kts
12-Aug-17 08:26 33.668752 -118.083551 25 13319ft 235kts
12-Aug-17 08:27 33.717794 -118.054564 24 14978ft 238kts
12-Aug-17 08:28 33.770366 -118.023753 24 16313ft 253kts
12-Aug-17 08:29 33.831382 -117.988188 24 16509ft 330kts
12-Aug-17 08:30 33.904959 -117.944698 30 16595ft 402kts
12-Aug-17 08:31 33.987379 -117.869895 37 17188ft 451kts
12-Aug-17 08:32 34.065043 -117.798675 36 18582ft 455kts
12-Aug-17 08:33 34.136625 -117.706895 51 20056ft 454kts
12-Aug-17 08:34 34.211118 -117.596208 50 21740ft 453kts
12-Aug-17 08:35 34.283894 -117.487975 50 22971ft 452kts
12-Aug-17 08:36 34.356255 -117.379702 50 24461ft 460kts
12-Aug-17 08:36 34.419086 -117.285438 51 25761ft 467kts
12-Aug-17 08:37 34.499163 -117.165414 50 27036ft 469kts
12-Aug-17 08:38 34.571761 -117.057340 50 27042ft 465kts
12-Aug-17 08:39 34.650905 -116.942087 50 27004ft 462kts
12-Aug-17 08:40 34.731076 -116.824869 50 26971ft 460kts
12-Aug-17 08:41 34.811480 -116.707014 50 26975ft 461kts
12-Aug-17 08:42 34.899054 -116.599506 36 26317ft 457kts
12-Aug-17 08:43 34.996688 -116.506049 37 25140ft 455kts
12-Aug-17 08:44 35.091978 -116.413527 37 24060ft 447kts
12-Aug-17 08:45 35.165501 -116.324698 46 23983ft 449kts
12-Aug-17 08:46 35.250225 -116.218042 45 24002ft 449kts
12-Aug-17 08:47 35.335268 -116.111131 46 22391ft 440kts
12-Aug-17 08:48 35.416805 -116.008383 46 20230ft 419kts
12-Aug-17 08:49 35.494283 -115.910408 46 18083ft 402kts
12-Aug-17 08:50 35.568688 -115.815931 46 15933ft 385kts
12-Aug-17 08:51 35.639581 -115.725829 47 13773ft 363kts
12-Aug-17 08:52 35.701638 -115.646301 47 13037ft 319kts
12-Aug-17 08:53 35.766862 -115.575620 11 13022ft 323kts
12-Aug-17 08:54 35.854580 -115.569656 1 13028ft 323kts
12-Aug-17 08:55 35.941797 -115.564730 5 13002ft 324kts
12-Aug-17 08:56 35.993139 -115.494720 71 12243ft 291kts
12-Aug-17 08:57 36.019751 -115.409999 70 11144ft 286kts
12-Aug-17 08:58 36.029032 -115.350059 97 10872ft 280kts
12-Aug-17 08:59 36.023809 -115.279918 97 9864ft 269kts
12-Aug-17 09:00 36.018212 -115.202939 97 8996ft 246kts
12-Aug-17 09:01 36.012872 -115.125588 97 8242ft 231kts
12-Aug-17 09:02 36.013804 -115.051409 88 7163ft 214kts
12-Aug-17 09:03 36.013405 -114.982032 91 5850ft 209kts
12-Aug-17 09:04 36.042685 -114.940053 339 4411ft 196kts
12-Aug-17 09:05 36.073491 -114.990399 279 3950ft 200kts
12-Aug-17 09:06 36.073815 -115.047226 269 3441ft 175kts
12-Aug-17 09:07 36.073647 -115.092014 269 2673ft 149kts
12-Aug-17 09:08 36.073656 -115.133083 269 2149ft 137kts
12-Aug-17 09:09 36.074409 -115.145226 299 2148ft 8kts
12-Aug-17 09:10 36.074925 -115.146276 309 2148ft 9kts
12-Aug-17 09:11 36.077899 -115.146980 327 2148ft 11kts
12-Aug-17 09:12 36.078316 -115.144217 94 2148ft 14kts
12-Aug-17 09:13 36.078473 -115.139981 51 2148ft 10kts
12-Aug-17 09:14 36.080211 -115.137909 25 2148ft 5kts
12-Aug-17 09:15 36.081063 -115.137160 61 2148ft 0kts
12-Aug-17 09:16 36.081063 -115.137160 61 2148ft 0kts

Navigation Log

Ident Type
Flight plan parsing failed, navigation log unavailable